Time;durP1;ratioP1;P1;durP2;ratioP2;P2;SDS_P1;SDS_P2;PMS_P1;PMS_P2;Temp;Humidity;BMP_temperature;BMP_pressure;BME280_temperature;BME280_humidity;BME280_pressure;Samples;Min_cycle;Max_cycle;Signal;HPM_P1;HPM_P2
2021/10/02 00:35:06;;;;;;;;;11.75;10.00;;;;;18.62;55.90;101600.25;146605;640;46018;-89
2021/10/02 00:46:19;;;;;;;;;10.50;9.25;;;;;18.65;54.93;101599.47;146601;620;46018;-85
2021/10/02 00:48:53;;;;;;;;;9.00;9.00;;;;;18.65;55.29;101595.09;146600;615;46012;-83
2021/10/02 00:51:27;;;;;;;;;13.50;11.50;;;;;18.60;54.47;101590.56;146605;616;46010;-86
2021/10/02 00:54:01;;;;;;;;;9.25;8.00;;;;;18.57;54.64;101595.72;146602;626;46019;-86
2021/10/02 00:56:35;;;;;;;;;10.00;10.00;;;;;18.55;54.87;101595.66;146604;583;46029;-86
2021/10/02 00:59:09;;;;;;;;;12.25;10.25;;;;;18.58;54.66;101600.13;146600;569;46018;-85
2021/10/02 01:01:56;;;;;;;;;12.75;10.50;;;;;18.56;55.38;101596.53;146603;604;46010;-88
2021/10/02 01:04:51;;;;;;;;;11.75;11.50;;;;;18.58;55.21;101594.88;146601;580;46018;-86
2021/10/02 01:07:37;;;;;;;;;9.25;9.25;;;;;18.58;55.14;101592.25;146605;615;47010;-87
2021/10/02 01:11:02;;;;;;;;;10.00;9.50;;;;;17.40;55.02;101381.88;146600;582;47905;-82
2021/10/02 01:13:47;;;;;;;;;12.00;11.25;;;;;18.55;55.14;101581.63;146600;572;46018;-83
2021/10/02 01:16:36;;;;;;;;;11.75;11.00;;;;;18.53;55.34;101578.94;146599;683;46019;-87
2021/10/02 01:19:46;;;;;;;;;13.75;12.00;;;;;17.38;55.00;101380.03;146605;593;46010;-87
2021/10/02 01:22:52;;;;;;;;;15.50;14.00;;;;;18.48;54.99;101575.31;146601;610;46019;-88
2021/10/02 01:26:20;;;;;;;;;13.75;12.25;;;;;17.28;55.38;101361.38;146599;740;47014;-91
2021/10/02 01:28:57;;;;;;;;;13.50;11.50;;;;;17.13;56.30;101337.28;146601;571;46022;-90
2021/10/02 01:31:40;;;;;;;;;12.75;11.00;;;;;18.42;56.40;101570.72;146601;683;46019;-91
2021/10/02 01:34:29;;;;;;;;;12.75;11.00;;;;;18.35;56.32;101565.22;146599;571;46018;-90
2021/10/02 01:48:43;;;;;;;;;15.75;11.50;;;;;18.23;57.36;101569.25;146603;615;46018;-81
2021/10/02 01:51:19;;;;;;;;;13.50;11.25;;;;;18.22;57.57;101567.47;146597;644;46019;-91
2021/10/02 01:53:54;;;;;;;;;13.75;12.00;;;;;18.07;57.32;101548.56;146605;565;46019;-91
2021/10/02 01:56:29;;;;;;;;;14.75;12.75;;;;;18.23;57.67;101568.34;146601;595;46018;-79
2021/10/02 01:59:04;;;;;;;;;12.25;11.75;;;;;18.23;57.02;101557.84;146601;626;46018;-83
2021/10/02 02:01:38;;;;;;;;;14.50;12.75;;;;;18.26;57.21;101565.81;146596;641;47906;-83
2021/10/02 02:04:13;;;;;;;;;16.00;13.25;;;;;18.28;56.63;101569.37;146601;580;46018;-83
2021/10/02 02:06:50;;;;;;;;;15.00;12.75;;;;;18.29;56.50;101572.91;146600;570;46019;-82
2021/10/02 02:09:26;;;;;;;;;16.00;14.75;;;;;18.26;56.41;101570.19;146602;603;46018;-82
2021/10/02 02:12:01;;;;;;;;;14.50;14.00;;;;;18.25;58.04;101564.03;146600;596;46033;-82
2021/10/02 02:14:36;;;;;;;;;13.00;12.25;;;;;18.22;56.93;101558.66;146601;610;47011;-83
2021/10/02 02:17:12;;;;;;;;;14.50;14.25;;;;;18.23;57.07;101558.75;146601;608;46031;-81
2021/10/02 02:19:49;;;;;;;;;17.25;14.25;;;;;18.26;57.55;101559.69;146605;584;46032;-80
2021/10/02 02:22:26;;;;;;;;;16.25;15.25;;;;;18.26;57.11;101568.44;146597;603;46019;-80
2021/10/02 02:25:01;;;;;;;;;14.25;14.25;;;;;18.27;57.76;101564.09;146603;563;46018;-82
2021/10/02 02:27:35;;;;;;;;;13.00;12.00;;;;;18.24;57.71;101557.00;146599;700;46020;-81
2021/10/02 02:30:10;;;;;;;;;15.50;13.25;;;;;18.21;57.02;101556.91;146604;569;46010;-78
2021/10/02 02:32:46;;;;;;;;;13.50;12.75;;;;;18.20;56.65;101558.63;146602;566;46905;-78
2021/10/02 02:35:22;;;;;;;;;16.00;13.00;;;;;18.20;56.98;101557.75;146598;660;46018;-83
2021/10/02 02:37:56;;;;;;;;;16.50;14.00;;;;;18.20;56.42;101558.63;146600;704;46013;-81
2021/10/02 02:40:31;;;;;;;;;12.00;9.75;;;;;18.21;55.99;101564.78;146601;588;46913;-86
2021/10/02 02:43:05;;;;;;;;;11.75;10.00;;;;;18.20;54.58;101569.13;146602;636;47013;-84
2021/10/02 02:45:39;;;;;;;;;11.75;9.00;;;;;18.20;54.75;101553.38;146606;660;46018;-87
2021/10/02 02:48:18;;;;;;;;;12.75;11.25;;;;;18.19;55.25;101545.44;146600;622;46035;-84
2021/10/02 02:51:14;;;;;;;;;10.75;10.00;;;;;18.20;55.35;101552.50;146604;634;46019;-84
2021/10/02 02:54:09;;;;;;;;;10.25;10.00;;;;;18.23;55.40;101555.22;146602;578;46012;-84
2021/10/02 02:56:49;;;;;;;;;12.25;10.25;;;;;18.26;54.10;101551.81;146605;573;46010;-83
2021/10/02 02:59:29;;;;;;;;;8.75;8.25;;;;;18.26;51.31;101542.19;146600;716;46906;-84
2021/10/02 03:02:05;;;;;;;;;9.75;9.50;;;;;18.21;50.83;101535.91;146601;572;46018;-82
2021/10/02 03:04:41;;;;;;;;;10.00;8.50;;;;;18.21;53.17;101557.78;146603;598;46018;-84
2021/10/02 03:07:19;;;;;;;;;11.00;10.75;;;;;18.22;53.22;101551.72;146604;592;47010;-84
2021/10/02 03:09:56;;;;;;;;;11.00;10.00;;;;;18.26;53.35;101550.06;146597;628;46020;-85
2021/10/02 03:12:37;;;;;;;;;10.00;8.00;;;;;18.31;53.58;101555.47;146602;650;46019;-86
2021/10/02 03:15:16;;;;;;;;;11.00;9.00;;;;;18.31;53.86;101544.97;146603;573;46018;-84
2021/10/02 03:17:52;;;;;;;;;11.75;9.50;;;;;18.31;53.01;101547.59;146605;569;47010;-84
2021/10/02 03:20:26;;;;;;;;;12.75;11.50;;;;;18.34;52.81;101550.31;146598;602;47020;-90
2021/10/02 03:23:01;;;;;;;;;9.50;9.00;;;;;18.35;52.77;101555.63;146607;647;45021;-91
2021/10/02 03:25:36;;;;;;;;;14.00;12.50;;;;;18.40;53.32;101556.66;146602;578;46018;-88
2021/10/02 03:28:10;;;;;;;;;9.67;9.00;;;;;18.43;53.92;101548.87;146604;632;46011;-88
2021/10/02 03:30:45;;;;;;;;;11.25;10.25;;;;;18.45;52.81;101548.94;146601;583;46018;-80
2021/10/02 03:33:20;;;;;;;;;11.75;11.00;;;;;18.45;53.53;101547.19;146598;608;47010;-84
2021/10/02 03:35:54;;;;;;;;;11.50;11.25;;;;;18.45;53.94;101552.44;146599;578;46019;-85
2021/10/02 03:38:28;;;;;;;;;12.00;9.25;;;;;18.45;53.65;101552.44;146603;596;46018;-80
2021/10/02 03:41:07;;;;;;;;;12.33;10.00;;;;;18.45;54.60;101544.56;146609;589;46019;-79
2021/10/02 03:43:41;;;;;;;;;13.00;12.00;;;;;18.39;54.19;101543.50;146610;586;45032;-79
2021/10/02 03:46:16;;;;;;;;;8.00;7.67;;;;;18.41;50.85;101539.16;146607;626;46020;-80
2021/10/02 03:48:51;;;;;;;;;10.50;9.00;;;;;18.40;52.46;101550.50;146610;604;47010;-81
2021/10/02 03:51:25;;;;;;;;;9.75;9.75;;;;;18.39;53.54;101544.38;146606;649;46019;-83
2021/10/02 03:53:59;;;;;;;;;12.75;11.00;;;;;18.40;54.10;101548.78;146610;647;46031;-82
2021/10/02 03:56:32;;;;;;;;;12.25;10.75;;;;;18.43;53.65;101555.87;146607;732;46018;-82
2021/10/02 03:59:06;;;;;;;;;11.50;10.25;;;;;18.42;53.73;101554.09;146613;694;46018;-81
2021/10/02 04:01:40;;;;;;;;;10.25;10.25;;;;;18.39;54.75;101557.50;146607;611;47012;-84
2021/10/02 04:04:14;;;;;;;;;13.50;13.50;;;;;18.37;54.07;101553.94;146608;663;47015;-85
2021/10/02 04:06:49;;;;;;;;;8.50;8.00;;;;;18.36;54.17;101554.78;146608;731;46019;-80
2021/10/02 04:09:24;;;;;;;;;10.75;9.00;;;;;18.35;51.51;101550.38;146607;643;46018;-81
2021/10/02 04:11:58;;;;;;;;;7.50;7.50;;;;;18.32;50.88;101547.66;146609;564;46018;-80
2021/10/02 04:14:33;;;;;;;;;9.50;7.75;;;;;18.31;50.03;101547.59;146610;664;46018;-80
2021/10/02 04:17:07;;;;;;;;;9.50;8.25;;;;;18.32;51.36;101550.28;146608;700;46018;-77
2021/10/02 04:19:42;;;;;;;;;9.75;8.75;;;;;18.32;49.83;101550.28;146608;566;46019;-77
2021/10/02 04:22:17;;;;;;;;;11.33;7.67;;;;;18.32;50.70;101547.66;146613;622;47012;-78
2021/10/02 04:24:51;;;;;;;;;10.50;10.00;;;;;18.33;51.33;101548.53;146614;681;46010;-83
2021/10/02 04:27:25;;;;;;;;;10.50;8.50;;;;;18.32;51.60;101549.38;146606;578;47013;-83
2021/10/02 04:29:59;;;;;;;;;8.50;8.00;;;;;18.36;52.04;101553.88;146609;598;46018;-84
2021/10/02 04:32:33;;;;;;;;;7.00;7.00;;;;;18.39;51.96;101554.00;146611;604;46018;-83
2021/10/02 04:35:07;;;;;;;;;8.00;8.00;;;;;18.42;52.34;101559.34;146614;623;46010;-83
2021/10/02 04:37:41;;;;;;;;;8.50;7.75;;;;;18.39;52.32;101552.25;146610;604;46012;-81
2021/10/02 04:40:16;;;;;;;;;9.00;8.50;;;;;18.43;51.41;101559.37;146606;668;46914;-80
2021/10/02 04:42:50;;;;;;;;;7.00;6.67;;;;;18.43;49.47;101563.75;146603;564;46019;-83
2021/10/02 04:45:24;;;;;;;;;10.25;9.00;;;;;18.39;49.91;101560.13;146600;565;46045;-79
2021/10/02 04:47:58;;;;;;;;;7.00;7.00;;;;;18.34;49.58;101553.81;146603;586;46906;-80
2021/10/02 04:50:35;;;;;;;;;9.00;9.00;;;;;18.34;50.76;101558.19;146605;665;46019;-79
2021/10/02 04:53:09;;;;;;;;;10.75;8.25;;;;;18.33;50.41;101551.16;146601;598;46018;-80
2021/10/02 04:55:43;;;;;;;;;9.00;8.00;;;;;18.33;50.51;101553.78;146604;669;47012;-81
2021/10/02 04:58:17;;;;;;;;;8.50;7.75;;;;;18.35;51.24;101562.59;146603;637;46018;-77
2021/10/02 05:00:51;;;;;;;;;8.25;7.50;;;;;18.37;51.00;101576.66;146603;633;46018;-76
2021/10/02 05:03:25;;;;;;;;;6.75;6.75;;;;;18.38;51.17;101574.12;146597;580;47020;-76
2021/10/02 05:05:59;;;;;;;;;8.00;8.00;;;;;18.40;51.09;101567.16;146604;569;46019;-77
2021/10/02 05:08:36;;;;;;;;;8.33;7.33;;;;;18.40;49.91;101563.66;146603;569;46018;-78
2021/10/02 05:11:10;;;;;;;;;8.00;7.33;;;;;18.40;49.58;101568.91;146600;592;46018;-79
2021/10/02 05:13:44;;;;;;;;;6.75;6.50;;;;;18.37;50.72;101569.69;146601;615;47012;-80
2021/10/02 05:16:18;;;;;;;;;7.00;5.75;;;;;18.35;50.67;101571.38;146604;573;46018;-82
2021/10/02 05:18:52;;;;;;;;;5.00;4.00;;;;;18.33;50.55;101575.69;146603;635;46019;-81
2021/10/02 05:21:26;;;;;;;;;8.25;7.25;;;;;18.33;50.36;101580.94;146604;580;46019;-82
2021/10/02 05:24:00;;;;;;;;;6.00;5.67;;;;;18.33;50.38;101583.56;146603;566;46035;-83
2021/10/02 05:26:34;;;;;;;;;7.50;6.50;;;;;18.34;50.97;101593.22;146604;565;46010;-89
2021/10/02 05:29:17;;;;;;;;;9.67;8.67;;;;;18.35;51.25;101588.84;146602;596;46018;-80
2021/10/02 05:31:51;;;;;;;;;9.00;7.00;;;;;18.34;49.96;101582.72;146602;566;46018;-77
2021/10/02 05:34:25;;;;;;;;;9.50;7.25;;;;;18.35;49.32;101586.22;146601;613;46018;-77
2021/10/02 05:36:59;;;;;;;;;7.50;7.25;;;;;18.31;48.37;101587.84;146600;627;46018;-77
2021/10/02 05:39:32;;;;;;;;;7.25;7.00;;;;;18.33;49.73;101587.91;146602;600;46018;-77
2021/10/02 05:42:07;;;;;;;;;6.00;6.00;;;;;18.33;49.42;101593.19;146605;628;46019;-78
2021/10/02 05:44:41;;;;;;;;;4.67;3.33;;;;;18.36;49.05;101593.28;146602;640;46018;-79
2021/10/02 05:47:14;;;;;;;;;8.33;7.67;;;;;18.37;48.66;101588.06;146605;584;47012;-78
2021/10/02 05:49:48;;;;;;;;;6.25;6.00;;;;;18.38;48.07;101592.50;146602;632;46019;-76
2021/10/02 05:52:22;;;;;;;;;8.50;8.50;;;;;18.40;49.24;101587.28;146606;590;46018;-77
2021/10/02 05:54:57;;;;;;;;;10.67;10.67;;;;;18.43;50.19;101593.50;146600;563;46027;-77
2021/10/02 05:57:31;;;;;;;;;13.00;11.75;;;;;18.50;50.53;101591.97;146605;595;45021;-77
2021/10/02 06:00:05;;;;;;;;;8.75;8.25;;;;;18.53;49.12;101589.44;146598;563;46018;-76
2021/10/02 06:02:39;;;;;;;;;9.00;7.33;;;;;18.56;47.81;101586.94;146605;575;47008;-77
2021/10/02 06:05:13;;;;;;;;;9.25;9.25;;;;;18.61;48.52;101593.22;146599;614;46019;-78
2021/10/02 06:07:47;;;;;;;;;12.25;9.25;;;;;18.65;49.81;101594.22;146598;697;46018;-77
2021/10/02 06:10:21;;;;;;;;;10.00;10.00;;;;;18.68;50.18;101605.72;146597;635;46018;-77
2021/10/02 06:12:55;;;;;;;;;14.00;10.75;;;;;18.72;49.74;101613.69;146604;569;46010;-77
2021/10/02 06:15:30;;;;;;;;;9.75;9.50;;;;;18.70;49.95;101597.91;146597;586;47905;-77
2021/10/02 06:18:03;;;;;;;;;7.00;7.00;;;;;18.76;50.91;101600.75;146603;656;46018;-77
2021/10/02 06:20:37;;;;;;;;;9.75;9.75;;;;;18.71;50.27;101591.78;146600;666;46019;-77
2021/10/02 06:23:11;;;;;;;;;8.00;8.00;;;;;18.80;50.89;101607.88;146603;576;47010;-77
2021/10/02 06:25:45;;;;;;;;;10.25;9.25;;;;;18.81;50.64;101617.53;146601;583;47013;-77
2021/10/02 06:28:20;;;;;;;;;10.67;8.00;;;;;18.83;50.66;101607.09;146607;639;46010;-77
2021/10/02 06:30:54;;;;;;;;;12.75;11.50;;;;;18.85;50.49;101610.66;146602;594;47012;-77
2021/10/02 06:33:27;;;;;;;;;10.75;9.75;;;;;18.85;50.70;101611.56;146605;648;46031;-78
2021/10/02 06:36:01;;;;;;;;;19.00;18.75;;;;;18.87;51.02;101609.84;146603;664;46906;-78
2021/10/02 06:38:35;;;;;;;;;10.00;9.25;;;;;18.88;49.82;101616.03;146601;676;46018;-79
2021/10/02 06:41:09;;;;;;;;;8.25;8.25;;;;;18.87;51.15;101617.72;146602;662;46019;-79
2021/10/02 06:43:43;;;;;;;;;11.75;10.25;;;;;18.87;51.45;101630.88;146603;635;46010;-79
2021/10/02 06:46:17;;;;;;;;;13.00;12.00;;;;;18.90;52.43;101630.06;146599;586;46018;-78
2021/10/02 06:48:51;;;;;;;;;15.25;13.25;;;;;18.90;51.66;101630.06;146598;603;47014;-79
2021/10/02 06:51:25;;;;;;;;;12.50;10.75;;;;;18.90;51.01;101635.34;146600;665;46012;-79
2021/10/02 06:53:59;;;;;;;;;9.50;9.50;;;;;18.91;50.99;101626.63;146600;570;46914;-79
2021/10/02 06:56:33;;;;;;;;;12.00;11.00;;;;;18.93;51.28;101638.94;146600;569;46020;-80
2021/10/02 06:59:07;;;;;;;;;10.33;10.33;;;;;18.94;50.66;101642.50;146604;579;47010;-79
2021/10/02 07:01:42;;;;;;;;;10.25;9.75;;;;;18.96;50.93;101643.41;146600;629;46018;-79
2021/10/02 07:04:16;;;;;;;;;10.50;10.00;;;;;18.94;50.49;101634.63;146602;695;46018;-79
2021/10/02 07:06:50;;;;;;;;;8.25;8.00;;;;;18.93;50.20;101638.06;146600;588;46020;-79
2021/10/02 07:09:24;;;;;;;;;8.67;8.00;;;;;18.90;50.49;101635.34;146605;588;47012;-79
2021/10/02 07:11:58;;;;;;;;;6.50;5.00;;;;;18.88;50.00;101635.31;146598;674;48020;-79
2021/10/02 07:14:32;;;;;;;;;10.00;10.00;;;;;18.91;51.40;101645.91;146605;570;46018;-79
2021/10/02 07:17:08;;;;;;;;;10.25;9.25;;;;;18.94;50.92;101650.37;146602;564;46018;-79
2021/10/02 07:19:41;;;;;;;;;11.00;10.00;;;;;18.97;50.06;101652.19;146598;566;46019;-79
2021/10/02 07:22:15;;;;;;;;;9.00;8.00;;;;;19.00;50.12;101653.16;146601;576;47012;-79
2021/10/02 07:24:49;;;;;;;;;9.00;9.00;;;;;19.03;50.23;101658.53;146602;672;46010;-80
2021/10/02 07:27:23;;;;;;;;;8.75;8.25;;;;;19.07;50.06;101665.69;146601;601;46018;-80
2021/10/02 07:29:57;;;;;;;;;7.00;6.00;;;;;19.11;50.22;101658.78;146606;652;46010;-79
2021/10/02 07:32:31;;;;;;;;;11.25;11.25;;;;;19.17;50.49;101658.97;146610;628;46018;-80
2021/10/02 07:35:05;;;;;;;;;10.75;10.00;;;;;19.20;47.64;101655.56;146617;644;45031;-80
2021/10/02 07:37:39;;;;;;;;;9.50;8.50;;;;;19.24;47.84;101666.19;146615;566;46018;-80
2021/10/02 07:40:16;;;;;;;;;11.50;10.50;;;;;19.27;48.16;101660.16;146614;590;45020;-80
2021/10/02 07:42:56;;;;;;;;;12.00;9.50;;;;;19.28;47.09;101657.59;146612;641;46018;-80
2021/10/02 07:45:31;;;;;;;;;11.25;9.00;;;;;19.32;47.22;101646.28;146613;600;46018;-79
2021/10/02 07:48:07;;;;;;;;;8.50;8.50;;;;;19.39;47.24;101650.00;146618;651;46018;-78
2021/10/02 07:50:42;;;;;;;;;9.25;9.00;;;;;19.44;47.85;101644.88;146620;717;45018;-79
2021/10/02 07:53:17;;;;;;;;;11.00;10.00;;;;;19.50;46.74;101664.37;146609;595;46018;-79
2021/10/02 07:55:53;;;;;;;;;8.75;8.75;;;;;19.54;46.64;101649.56;146623;564;46010;-78
2021/10/02 07:58:27;;;;;;;;;9.75;7.25;;;;;19.54;47.25;101653.09;146616;564;46905;-80
2021/10/02 08:01:01;;;;;;;;;8.00;8.00;;;;;19.54;46.86;101657.47;146618;603;46010;-78
2021/10/02 08:03:36;;;;;;;;;10.25;9.00;;;;;19.47;47.50;101648.50;146611;571;47021;-78
2021/10/02 08:06:11;;;;;;;;;13.25;10.00;;;;;19.54;46.37;101662.72;146614;691;46018;-78
2021/10/02 08:08:47;;;;;;;;;10.25;9.00;;;;;19.52;46.65;101659.16;146613;581;46012;-80
2021/10/02 08:11:21;;;;;;;;;9.25;8.25;;;;;19.50;47.96;101645.97;146619;565;45019;-77
2021/10/02 08:13:55;;;;;;;;;10.00;9.00;;;;;19.52;45.85;101652.12;146615;584;46018;-78
2021/10/02 08:16:33;;;;;;;;;13.00;11.50;;;;;19.55;46.61;101653.97;146612;677;46018;-78
2021/10/02 08:19:09;;;;;;;;;12.75;12.00;;;;;19.58;47.80;101656.69;146613;611;46012;-78
2021/10/02 08:21:44;;;;;;;;;9.00;8.00;;;;;19.68;47.60;101661.41;146618;563;46008;-78
2021/10/02 08:24:18;;;;;;;;;8.00;8.00;;;;;19.79;46.18;101659.97;146613;570;46018;-78
2021/10/02 08:26:56;;;;;;;;;7.00;7.00;;;;;19.91;47.10;101656.81;146619;663;46019;-78
2021/10/02 08:29:31;;;;;;;;;9.67;8.67;;;;;20.04;44.18;101658.03;146614;631;45030;-80
2021/10/02 08:32:06;;;;;;;;;8.00;7.33;;;;;20.16;45.04;101646.94;146614;579;46019;-77
2021/10/02 08:34:40;;;;;;;;;7.75;7.25;;;;;20.24;44.85;101643.66;146618;599;46012;-78
2021/10/02 08:37:13;;;;;;;;;11.75;10.25;;;;;20.27;43.91;101653.38;146613;573;46018;-79
2021/10/02 08:39:47;;;;;;;;;15.75;14.50;;;;;20.28;45.03;101652.53;146605;638;46013;-78
2021/10/02 08:42:23;;;;;;;;;9.25;7.50;;;;;20.35;44.75;101659.75;146619;601;45020;-79
2021/10/02 08:44:58;;;;;;;;;9.00;8.00;;;;;20.22;43.11;101626.06;146612;610;46018;-78
2021/10/02 08:47:34;;;;;;;;;7.67;7.67;;;;;20.19;42.16;101631.22;146619;569;45025;-78
2021/10/02 08:50:11;;;;;;;;;7.00;7.00;;;;;20.18;42.20;101659.28;146613;618;46018;-80
2021/10/02 08:52:45;;;;;;;;;6.67;6.67;;;;;20.11;44.23;101657.34;146616;634;46018;-79
2021/10/02 08:55:19;;;;;;;;;7.67;7.67;;;;;20.06;44.00;101665.13;146617;584;46012;-79
2021/10/02 08:57:56;;;;;;;;;11.33;10.33;;;;;20.15;45.17;101655.69;146617;611;46018;-79
2021/10/02 09:00:30;;;;;;;;;7.00;7.00;;;;;20.23;42.93;101655.03;146614;595;46018;-79
2021/10/02 09:03:04;;;;;;;;;9.75;9.75;;;;;20.24;44.01;101654.19;146612;602;46010;-79
2021/10/02 09:05:39;;;;;;;;;9.50;9.50;;;;;20.29;43.45;101651.69;146616;573;47022;-81
2021/10/02 09:08:12;;;;;;;;;9.25;9.25;;;;;20.39;44.79;101658.97;146613;577;46009;-78
2021/10/02 09:10:47;;;;;;;;;11.00;8.25;;;;;20.52;42.51;101652.31;146613;587;46018;-79
2021/10/02 09:13:20;;;;;;;;;10.75;9.50;;;;;20.61;41.04;101656.91;146616;580;45020;-79
2021/10/02 09:15:54;;;;;;;;;12.50;12.00;;;;;20.64;42.13;101657.00;146613;602;46018;-80
2021/10/02 09:18:29;;;;;;;;;17.25;15.50;;;;;20.64;42.04;101657.00;146612;690;46014;-79
2021/10/02 09:21:11;;;;;;;;;12.00;11.00;;;;;20.66;43.84;101650.91;146613;584;46022;-79
2021/10/02 09:23:53;;;;;;;;;12.00;11.00;;;;;20.66;41.27;101648.28;146612;579;46019;-79
2021/10/02 09:26:47;;;;;;;;;13.50;12.00;;;;;20.71;44.93;101640.47;146611;569;46012;-77
2021/10/02 09:29:21;;;;;;;;;9.25;9.25;;;;;20.58;42.53;101615.56;146614;577;46018;-78
2021/10/02 09:31:59;;;;;;;;;15.00;11.25;;;;;20.77;42.83;101640.63;146612;573;46012;-79
2021/10/02 09:34:33;;;;;;;;;10.50;10.50;;;;;20.80;42.21;101639.81;146614;579;45029;-79
2021/10/02 09:37:07;;;;;;;;;12.25;10.50;;;;;20.78;41.92;101634.50;146610;657;46018;-80
2021/10/02 09:39:46;;;;;;;;;11.75;8.25;;;;;20.78;42.72;101639.78;146615;639;46019;-80
2021/10/02 09:42:25;;;;;;;;;10.25;8.50;;;;;20.80;42.85;101640.69;146613;635;46018;-78
2021/10/02 09:45:11;;;;;;;;;8.25;8.00;;;;;20.85;44.73;101639.06;146616;588;45026;-78
2021/10/02 09:47:46;;;;;;;;;13.25;12.75;;;;;20.97;43.58;101633.19;146610;579;46018;-77
2021/10/02 09:50:41;;;;;;;;;11.00;10.50;;;;;20.03;44.14;101449.19;146610;628;46018;-79
2021/10/02 09:53:18;;;;;;;;;10.00;9.75;;;;;21.40;40.35;101621.88;146612;686;47020;-78
2021/10/02 09:55:56;;;;;;;;;10.50;9.75;;;;;21.59;41.12;101639.00;146610;613;46008;-78
2021/10/02 09:58:38;;;;;;;;;11.00;10.00;;;;;21.61;42.88;101634.63;146611;572;47905;-79
2021/10/02 10:01:25;;;;;;;;;8.25;8.00;;;;;21.53;40.51;101637.97;146615;657;46019;-78
2021/10/02 10:03:59;;;;;;;;;9.50;9.00;;;;;21.42;41.79;101640.37;146606;631;46018;-79
2021/10/02 10:06:33;;;;;;;;;10.75;10.75;;;;;21.38;42.81;101643.81;146616;657;46012;-78
2021/10/02 10:09:14;;;;;;;;;13.50;13.50;;;;;21.39;42.97;101642.94;146610;666;46012;-78
2021/10/02 10:11:53;;;;;;;;;19.25;19.25;;;;;21.43;42.45;101643.06;146613;564;46008;-78
2021/10/02 10:14:30;;;;;;;;;17.50;16.25;;;;;21.51;42.56;101643.22;146605;591;46019;-78
2021/10/02 10:17:08;;;;;;;;;16.00;14.75;;;;;21.59;42.90;101652.19;146607;581;46018;-78
2021/10/02 10:19:42;;;;;;;;;16.00;14.75;;;;;21.64;42.38;101642.59;146608;593;45905;-79
2021/10/02 10:22:21;;;;;;;;;14.75;13.75;;;;;21.73;42.67;101639.25;146609;607;45026;-78
2021/10/02 10:24:58;;;;;;;;;14.50;14.00;;;;;21.78;42.14;101628.81;146605;654;46019;-79
2021/10/02 10:27:46;;;;;;;;;13.50;13.50;;;;;21.91;42.17;101636.09;146607;671;46018;-79
2021/10/02 10:30:31;;;;;;;;;17.25;16.00;;;;;21.96;43.07;101639.69;146606;579;46018;-78
2021/10/02 10:33:10;;;;;;;;;17.25;16.25;;;;;22.00;40.47;101638.91;146606;617;46018;-78
2021/10/02 10:35:53;;;;;;;;;14.75;14.00;;;;;21.96;41.89;101629.13;146606;577;46018;-78
2021/10/02 10:38:30;;;;;;;;;14.75;13.75;;;;;21.91;40.54;101628.19;146608;592;46018;-78
2021/10/02 10:41:04;;;;;;;;;14.50;13.50;;;;;21.85;41.05;101631.59;146604;581;46018;-78
2021/10/02 10:43:42;;;;;;;;;17.50;14.25;;;;;21.80;40.85;101634.97;146606;620;46018;-79
2021/10/02 10:46:20;;;;;;;;;16.00;15.50;;;;;21.74;40.76;101627.81;146605;592;46019;-79
2021/10/02 10:48:55;;;;;;;;;17.50;16.00;;;;;21.61;39.68;101613.50;146609;584;45018;-78
2021/10/02 10:51:30;;;;;;;;;23.25;19.00;;;;;21.61;42.22;101620.53;146606;594;46018;-77
2021/10/02 10:54:04;;;;;;;;;13.00;12.50;;;;;21.61;42.74;101625.81;146608;613;46019;-77
2021/10/02 10:56:52;;;;;;;;;15.25;14.50;;;;;21.66;43.11;101618.88;146605;589;46018;-77
2021/10/02 10:59:26;;;;;;;;;18.00;16.75;;;;;21.74;42.22;101614.62;146606;760;46019;-77
2021/10/02 11:02:00;;;;;;;;;15.50;14.75;;;;;21.84;40.48;101624.53;146606;564;46019;-77
2021/10/02 11:04:43;;;;;;;;;18.25;17.75;;;;;21.87;42.37;101624.59;146604;583;46010;-77
2021/10/02 11:07:18;;;;;;;;;18.00;17.00;;;;;21.89;41.56;101621.97;146604;658;46018;-77
2021/10/02 11:09:51;;;;;;;;;20.50;19.50;;;;;21.87;42.05;101614.03;146609;639;46018;-77
2021/10/02 11:12:26;;;;;;;;;14.50;14.50;;;;;21.86;41.92;101611.34;146604;596;46018;-78
2021/10/02 11:15:01;;;;;;;;;17.50;14.25;;;;;21.84;42.07;101613.97;146609;567;46008;-77
2021/10/02 11:17:45;;;;;;;;;19.75;18.25;;;;;21.84;42.90;101615.72;146606;636;45045;-77
2021/10/02 11:20:42;;;;;;;;;22.50;19.00;;;;;20.76;43.48;101422.72;146606;571;46018;-76
2021/10/02 11:24:03;;;;;;;;;17.75;15.25;;;;;21.84;43.64;101608.69;146608;577;46012;-77
2021/10/02 11:27:00;;;;;;;;;15.50;15.50;;;;;21.91;43.35;101605.28;146607;576;46018;-76
2021/10/02 11:29:44;;;;;;;;;20.25;17.25;;;;;21.95;42.73;101603.59;146606;678;46018;-76
2021/10/02 11:32:38;;;;;;;;;17.50;16.00;;;;;22.00;42.68;101603.69;146611;569;46010;-77
2021/10/02 11:35:36;;;;;;;;;15.75;15.00;;;;;22.06;42.44;101596.78;146604;616;46018;-77
2021/10/02 11:38:12;;;;;;;;;19.25;18.25;;;;;22.20;42.03;101598.78;146610;579;46019;-77
2021/10/02 11:40:49;;;;;;;;;19.75;18.25;;;;;22.31;41.61;101592.84;146607;629;46012;-77
2021/10/02 11:43:27;;;;;;;;;20.00;17.00;;;;;22.48;41.05;101597.50;146605;569;46018;-77
2021/10/02 11:46:04;;;;;;;;;20.75;19.25;;;;;22.58;41.12;101592.38;146605;692;46018;-77
2021/10/02 11:48:46;;;;;;;;;19.25;17.50;;;;;22.68;40.60;101590.78;146607;621;46019;-78
2021/10/02 11:51:29;;;;;;;;;15.75;15.75;;;;;22.69;40.44;101583.75;146602;592;46018;-76
2021/10/02 11:54:19;;;;;;;;;15.00;14.50;;;;;22.63;40.45;101586.28;146609;660;45044;-77
2021/10/02 11:57:16;;;;;;;;;17.00;16.00;;;;;22.56;41.87;101590.59;146603;579;46012;-77
2021/10/02 11:59:50;;;;;;;;;15.00;15.00;;;;;22.55;40.39;101581.78;146609;641;46018;-75
2021/10/02 12:02:24;;;;;;;;;19.75;17.00;;;;;22.45;40.48;101574.56;146606;617;46019;-77
2021/10/02 12:04:58;;;;;;;;;17.25;16.25;;;;;22.53;40.50;101586.16;146607;574;46018;-76
2021/10/02 12:07:34;;;;;;;;;17.50;17.50;;;;;22.54;40.06;101585.28;146601;653;47020;-76
2021/10/02 12:10:08;;;;;;;;;18.25;18.00;;;;;22.55;40.64;101589.72;146604;605;46019;-76
2021/10/02 12:12:42;;;;;;;;;17.75;16.75;;;;;22.60;40.49;101589.78;146603;579;46018;-77
2021/10/02 12:15:37;;;;;;;;;17.75;16.25;;;;;22.70;40.74;101589.03;146605;612;46014;-76
2021/10/02 12:18:11;;;;;;;;;18.50;17.00;;;;;22.75;39.64;101589.13;146604;578;46019;-77
2021/10/02 12:20:46;;;;;;;;;17.50;16.00;;;;;22.73;38.91;101589.09;146611;607;45018;-77
2021/10/02 12:23:20;;;;;;;;;16.50;16.25;;;;;22.73;42.22;101591.72;146609;580;46018;-76
2021/10/02 12:26:05;;;;;;;;;18.50;18.50;;;;;22.77;40.46;101585.66;146609;588;45030;-76
2021/10/02 12:28:39;;;;;;;;;21.00;18.75;;;;;22.95;41.08;101585.03;146606;600;46022;-77
2021/10/02 12:31:13;;;;;;;;;17.00;16.25;;;;;23.14;39.69;101587.94;146610;572;46018;-78
2021/10/02 12:33:47;;;;;;;;;19.25;18.50;;;;;23.25;38.51;101595.16;146603;631;46019;-77
2021/10/02 12:36:40;;;;;;;;;21.75;19.50;;;;;23.32;40.10;101588.19;146606;569;46008;-77
2021/10/02 12:39:14;;;;;;;;;22.25;21.00;;;;;23.32;39.17;101595.22;146604;570;46019;-77
2021/10/02 12:41:50;;;;;;;;;20.50;17.50;;;;;23.24;38.85;101593.37;146604;678;46018;-76
2021/10/02 12:44:28;;;;;;;;;24.50;23.00;;;;;23.21;38.90;101589.81;146605;573;46012;-77
2021/10/02 12:47:04;;;;;;;;;18.75;16.75;;;;;23.28;40.28;101592.53;146605;566;45025;-77
2021/10/02 12:49:50;;;;;;;;;18.25;16.00;;;;;23.49;39.49;101583.09;146602;566;46018;-77
2021/10/02 12:52:25;;;;;;;;;20.00;17.25;;;;;23.74;37.52;101579.00;146607;578;45020;-78
2021/10/02 12:55:01;;;;;;;;;23.25;20.25;;;;;23.93;37.13;101569.50;146603;572;46019;-78